Time,TemperatureF,DewpointF,PressureIn,WindDirection,WindDirectionDegrees,WindSpeedMPH,WindSpeedGustMPH,Humidity,HourlyPrecipIn,Conditions,Clouds,dailyrainin,SoftwareType,DateUTC
2016-12-06 00:03:00,33.8,31.7,29.77,SW,216,6.0,14.0,92,0.00,,,0.00,WeatherCatV2.40B198,2016-12-06 06:03:00,
2016-12-06 00:08:00,33.7,31.6,29.76,South,183,5.0,12.0,92,0.00,,,0.00,WeatherCatV2.40B198,2016-12-06 06:08:00,
2016-12-06 00:13:00,33.6,31.5,29.77,South,182,9.0,11.0,92,0.00,,,0.00,WeatherCatV2.40B198,2016-12-06 06:13:00,
2016-12-06 00:18:00,33.5,31.4,29.77,SSW,207,8.0,17.0,92,0.00,,,0.00,WeatherCatV2.40B198,2016-12-06 06:18:00,
2016-12-06 00:23:00,33.3,31.2,29.77,SSE,165,4.0,18.0,92,0.00,,,0.00,WeatherCatV2.40B198,2016-12-06 06:23:00,
2016-12-06 00:28:00,33.2,31.1,29.77,SSW,204,4.0,13.0,92,0.00,,,0.01,WeatherCatV2.40B198,2016-12-06 06:28:00,
2016-12-06 00:34:00,33.1,31.0,29.76,South,190,6.0,7.0,92,0.00,,,0.01,WeatherCatV2.40B198,2016-12-06 06:34:00,
2016-12-06 00:39:00,33.1,31.0,29.77,South,186,5.0,12.0,92,0.00,,,0.01,WeatherCatV2.40B198,2016-12-06 06:39:00,
2016-12-06 00:44:00,33.0,30.9,29.76,SW,224,5.0,10.0,92,0.00,,,0.01,WeatherCatV2.40B198,2016-12-06 06:44:00,
2016-12-06 00:49:00,33.0,30.9,29.77,SSW,204,3.0,15.0,92,0.00,,,0.01,WeatherCatV2.40B198,2016-12-06 06:49:00,
2016-12-06 00:54:00,32.9,30.8,29.77,SSW,194,5.0,9.0,92,0.00,,,0.01,WeatherCatV2.40B198,2016-12-06 06:54:00,
2016-12-06 00:59:00,32.9,30.8,29.77,South,186,4.0,9.0,92,0.00,,,0.01,WeatherCatV2.40B198,2016-12-06 06:59:00,
2016-12-06 01:04:00,32.9,30.8,29.77,WSW,237,4.0,5.0,92,0.00,,,0.02,WeatherCatV2.40B198,2016-12-06 07:04:00,
2016-12-06 01:09:00,32.8,31.0,29.77,SW,221,1.0,16.0,93,0.00,,,0.02,WeatherCatV2.40B198,2016-12-06 07:09:00,
2016-12-06 01:14:00,32.8,31.0,29.77,South,188,1.0,7.0,93,0.00,,,0.02,WeatherCatV2.40B198,2016-12-06 07:14:00,
2016-12-06 01:19:00,32.8,31.0,29.77,South,191,3.0,7.0,93,0.00,,,0.02,WeatherCatV2.40B198,2016-12-06 07:19:00,
2016-12-06 01:24:00,32.8,31.0,29.77,SW,229,2.0,5.0,93,0.00,,,0.02,WeatherCatV2.40B198,2016-12-06 07:24:00,
2016-12-06 01:29:00,32.8,31.0,29.77,SW,217,2.0,3.0,93,0.00,,,0.02,WeatherCatV2.40B198,2016-12-06 07:29:00,
2016-12-06 01:34:00,32.7,30.9,29.77,SSE,163,6.0,6.0,93,0.00,,,0.02,WeatherCatV2.40B198,2016-12-06 07:34:00,
2016-12-06 01:39:00,32.7,30.9,29.78,WSW,248,1.0,3.0,93,0.00,,,0.02,WeatherCatV2.40B198,2016-12-06 07:39:00,
2016-12-06 01:44:00,32.7,30.9,29.78,SSW,211,2.0,4.0,93,0.00,,,0.02,WeatherCatV2.40B198,2016-12-06 07:44:00,
2016-12-06 01:49:00,32.8,31.0,29.78,WSW,242,2.0,2.0,93,0.00,,,0.02,WeatherCatV2.40B198,2016-12-06 07:49:00,
2016-12-06 01:54:00,32.7,30.9,29.78,SW,219,0.0,5.0,93,0.00,,,0.02,WeatherCatV2.40B198,2016-12-06 07:54:00,
2016-12-06 01:59:00,32.8,31.0,29.78,WSW,247,2.0,4.0,93,0.00,,,0.02,WeatherCatV2.40B198,2016-12-06 07:59:00,
2016-12-06 02:04:00,32.8,31.0,29.78,SSW,205,1.0,7.0,93,0.00,,,0.02,WeatherCatV2.40B198,2016-12-06 08:04:00,
2016-12-06 02:09:00,32.8,31.0,29.78,SW,231,2.0,3.0,93,0.00,,,0.02,WeatherCatV2.40B198,2016-12-06 08:09:00,
2016-12-06 02:14:00,32.8,31.3,29.78,SSW,213,1.0,4.0,94,0.00,,,0.02,WeatherCatV2.40B198,2016-12-06 08:14:00,
2016-12-06 02:19:00,32.8,31.3,29.79,SSW,192,2.0,6.0,94,0.00,,,0.02,WeatherCatV2.40B198,2016-12-06 08:19:00,
2016-12-06 02:24:00,32.8,31.3,29.79,SW,221,1.0,3.0,94,0.00,,,0.02,WeatherCatV2.40B198,2016-12-06 08:24:00,
2016-12-06 02:29:00,32.8,31.3,29.80,SW,229,2.0,3.0,94,0.00,,,0.02,WeatherCatV2.40B198,2016-12-06 08:29:00,
2016-12-06 02:34:00,32.8,31.3,29.79,SSW,192,1.0,2.0,94,0.00,,,0.02,WeatherCatV2.40B198,2016-12-06 08:34:00,
2016-12-06 02:39:00,32.8,31.3,29.79,SSW,205,1.0,2.0,94,0.00,,,0.03,WeatherCatV2.40B198,2016-12-06 08:39:00,
2016-12-06 02:44:00,32.9,31.4,29.79,SSW,205,0.0,3.0,94,0.00,,,0.03,WeatherCatV2.40B198,2016-12-06 08:44:00,
2016-12-06 02:49:00,32.9,31.4,29.79,WSW,254,0.0,1.0,94,0.00,,,0.03,WeatherCatV2.40B198,2016-12-06 08:49:00,
2016-12-06 02:54:00,32.9,31.4,29.79,SW,225,0.0,1.0,94,0.00,,,0.03,WeatherCatV2.40B198,2016-12-06 08:54:00,
2016-12-06 02:59:00,32.9,31.4,29.79,WSW,240,0.0,2.0,94,0.00,,,0.03,WeatherCatV2.40B198,2016-12-06 08:59:00,
2016-12-06 03:04:00,32.9,31.4,29.79,WSW,239,0.0,0.0,94,0.00,,,0.03,WeatherCatV2.40B198,2016-12-06 09:04:00,
2016-12-06 03:09:00,32.9,31.4,29.79,SW,215,0.0,1.0,94,0.00,,,0.03,WeatherCatV2.40B198,2016-12-06 09:09:00,
2016-12-06 03:14:00,32.8,31.3,29.79,WSW,255,0.0,1.0,94,0.00,,,0.03,WeatherCatV2.40B198,2016-12-06 09:14:00,
2016-12-06 03:19:00,32.8,31.3,29.78,WSW,247,0.0,1.0,94,0.00,,,0.03,WeatherCatV2.40B198,2016-12-06 09:19:00,